createdAt,value
2018-12-21T00:01:44.769Z,96.01
2018-12-21T00:04:15.158Z,95.36
2018-12-21T00:06:45.859Z,95.79
2018-12-21T00:09:16.705Z,95.65
2018-12-21T00:11:47.575Z,95.66
2018-12-21T00:14:18.305Z,95.21
2018-12-21T00:16:49.068Z,95.08
2018-12-21T00:19:19.556Z,95.20
2018-12-21T00:21:50.206Z,95.20
2018-12-21T00:24:20.831Z,95.21
2018-12-21T00:26:51.647Z,95.13
2018-12-21T00:29:22.317Z,95.11
2018-12-21T00:31:57.968Z,95.12
2018-12-21T00:34:33.676Z,95.41
2018-12-21T00:37:09.374Z,95.43
2018-12-21T00:39:45.139Z,95.25
2018-12-21T00:42:19.672Z,95.55
2018-12-21T00:44:52.879Z,95.44
2018-12-21T00:47:23.371Z,95.17
2018-12-21T00:49:53.987Z,95.70
2018-12-21T00:52:24.763Z,95.24
2018-12-21T00:54:55.348Z,95.64
2018-12-21T00:57:25.991Z,94.88
2018-12-21T00:59:56.587Z,95.41
2018-12-21T01:02:27.289Z,95.47
2018-12-21T01:04:57.957Z,95.57
2018-12-21T01:07:28.750Z,95.41
2018-12-21T01:10:00.583Z,95.59
2018-12-21T01:12:31.283Z,94.86
2018-12-21T01:15:02.167Z,95.02
2018-12-21T01:17:33.949Z,94.63
2018-12-21T01:20:05.147Z,94.77
2018-12-21T01:22:35.619Z,95.12
2018-12-21T01:25:06.516Z,95.39
2018-12-21T01:27:37.191Z,95.10
2018-12-21T01:30:08.380Z,95.48
2018-12-21T01:32:39.095Z,94.83
2018-12-21T01:35:09.663Z,94.57
2018-12-21T01:37:40.303Z,94.86
2018-12-21T01:40:10.887Z,95.12
2018-12-21T01:42:41.706Z,95.01
2018-12-21T01:45:12.505Z,94.94
2018-12-21T01:47:43.046Z,94.41
2018-12-21T01:50:13.722Z,94.89
2018-12-21T01:52:44.477Z,94.34
2018-12-21T01:55:14.984Z,94.91
2018-12-21T01:57:45.575Z,94.92
2018-12-21T02:00:16.216Z,94.52
2018-12-21T02:02:46.893Z,94.42
2018-12-21T02:05:17.747Z,94.72
2018-12-21T02:07:48.408Z,94.65
2018-12-21T02:10:18.985Z,94.17
2018-12-21T02:12:49.542Z,94.36
2018-12-21T02:15:20.150Z,94.37
2018-12-21T02:17:50.954Z,94.69
2018-12-21T02:20:21.450Z,94.15
2018-12-21T02:22:52.075Z,95.06
2018-12-21T02:25:22.787Z,94.42
2018-12-21T02:27:53.484Z,95.02
2018-12-21T02:30:24.056Z,94.33
2018-12-21T02:32:54.652Z,94.24
2018-12-21T02:35:25.200Z,94.70
2018-12-21T02:37:55.912Z,94.61
2018-12-21T02:40:26.694Z,94.51
2018-12-21T02:42:57.379Z,94.44
2018-12-21T02:45:27.937Z,94.76
2018-12-21T02:47:58.604Z,94.08
2018-12-21T02:50:29.313Z,94.31
2018-12-21T02:53:00.100Z,94.56
2018-12-21T02:55:31.091Z,94.25
2018-12-21T02:58:01.863Z,94.79
2018-12-21T03:00:32.880Z,94.37
2018-12-21T03:03:03.838Z,94.65
2018-12-21T03:05:34.555Z,94.81
2018-12-21T03:08:05.304Z,94.89
2018-12-21T03:10:36.232Z,94.77
2018-12-21T03:13:07.037Z,95.06
2018-12-21T03:15:37.779Z,95.03
2018-12-21T03:18:08.364Z,94.85
2018-12-21T03:20:38.943Z,95.17
2018-12-21T03:23:09.505Z,95.06
2018-12-21T03:25:40.095Z,94.83
2018-12-21T03:28:10.886Z,95.50
2018-12-21T03:30:41.436Z,95.29
2018-12-21T03:33:12.150Z,95.58
2018-12-21T03:35:42.733Z,95.50
2018-12-21T03:38:13.365Z,95.52
2018-12-21T03:40:43.676Z,95.92
2018-12-21T03:43:14.434Z,96.19
2018-12-21T03:45:45.073Z,95.70
2018-12-21T03:48:15.826Z,95.86
2018-12-21T03:50:46.438Z,96.11
2018-12-21T03:53:16.978Z,96.23
2018-12-21T03:55:47.570Z,96.29
2018-12-21T03:58:18.207Z,96.44
2018-12-21T04:00:48.874Z,96.61
2018-12-21T04:03:19.503Z,96.79
2018-12-21T04:05:50.157Z,96.20
2018-12-21T04:08:20.796Z,96.23
2018-12-21T04:10:51.564Z,96.21
2018-12-21T04:13:22.228Z,96.28
2018-12-21T04:15:52.928Z,95.87
2018-12-21T04:18:23.562Z,95.97
2018-12-21T04:20:54.397Z,95.57
2018-12-21T04:23:25.016Z,95.42
2018-12-21T04:25:55.660Z,95.29
2018-12-21T04:28:26.323Z,95.49
2018-12-21T04:30:56.747Z,94.88
2018-12-21T04:33:27.378Z,94.90
2018-12-21T04:35:57.925Z,94.47
2018-12-21T04:38:28.553Z,94.32
2018-12-21T04:40:59.082Z,94.71
2018-12-21T04:43:29.692Z,94.74
2018-12-21T04:46:00.304Z,94.93
2018-12-21T04:48:31.095Z,94.91
2018-12-21T04:51:01.759Z,94.82
2018-12-21T04:53:32.101Z,94.59
2018-12-21T04:56:02.935Z,94.86
2018-12-21T04:58:33.480Z,94.53
2018-12-21T05:01:04.084Z,94.25
2018-12-21T05:03:34.512Z,94.32
2018-12-21T05:06:04.776Z,94.51
2018-12-21T05:08:35.151Z,94.04
2018-12-21T05:11:05.761Z,94.49
2018-12-21T05:13:36.330Z,94.82
2018-12-21T05:16:06.950Z,94.98
2018-12-21T05:18:38.247Z,94.67
2018-12-21T05:21:08.796Z,94.23
2018-12-21T05:23:39.249Z,94.37
2018-12-21T05:26:09.712Z,94.56
2018-12-21T05:28:40.258Z,94.85
2018-12-21T05:31:10.812Z,94.39
2018-12-21T05:33:41.521Z,93.94
2018-12-21T05:36:11.977Z,93.80
2018-12-21T05:38:42.700Z,94.23
2018-12-21T05:41:13.376Z,94.19
2018-12-21T05:43:44.047Z,93.82
2018-12-21T05:46:14.747Z,94.31
2018-12-21T05:48:45.175Z,93.96
2018-12-21T05:51:15.486Z,94.85
2018-12-21T05:53:46.052Z,94.12
2018-12-21T05:56:16.851Z,94.55
2018-12-21T05:58:47.493Z,95.02
2018-12-21T06:01:18.163Z,94.80
2018-12-21T06:03:48.950Z,94.71
2018-12-21T06:06:19.621Z,94.54
2018-12-21T06:08:50.469Z,94.53
2018-12-21T06:11:21.353Z,94.62
2018-12-21T06:13:52.036Z,94.88
2018-12-21T06:16:22.803Z,94.52
2018-12-21T06:18:53.486Z,94.55
2018-12-21T06:21:24.085Z,94.90
2018-12-21T06:23:54.823Z,94.97
2018-12-21T06:26:25.452Z,95.30
2018-12-21T06:28:56.189Z,95.02
2018-12-21T06:31:26.799Z,95.49
2018-12-21T06:33:57.465Z,95.12
2018-12-21T06:36:27.756Z,95.46
2018-12-21T06:38:58.537Z,95.13
2018-12-21T06:41:29.044Z,95.37
2018-12-21T06:43:59.640Z,95.67
2018-12-21T06:46:30.447Z,95.62
2018-12-21T06:49:00.982Z,94.96
2018-12-21T06:51:31.458Z,94.41
2018-12-21T06:54:02.161Z,94.49
2018-12-21T06:56:32.933Z,93.97
2018-12-21T06:59:03.637Z,93.57
2018-12-21T07:01:34.113Z,93.90
2018-12-21T07:04:04.642Z,93.41
2018-12-21T07:06:35.364Z,94.14
2018-12-21T07:09:07.740Z,93.98
2018-12-21T07:11:38.384Z,93.47
2018-12-21T07:14:09.058Z,93.05
2018-12-21T07:16:39.706Z,92.53
2018-12-21T07:19:10.347Z,92.59
2018-12-21T07:21:40.886Z,91.35
2018-12-21T07:24:11.286Z,91.02
2018-12-21T07:26:41.707Z,90.95
2018-12-21T07:29:12.114Z,91.42
2018-12-21T07:31:42.728Z,91.57
2018-12-21T07:34:13.475Z,91.26
2018-12-21T07:36:44.358Z,92.39
2018-12-21T07:39:14.964Z,92.10
2018-12-21T07:41:45.374Z,92.24
2018-12-21T07:44:16.102Z,92.51
2018-12-21T07:46:46.815Z,92.37
2018-12-21T07:49:17.389Z,92.87
2018-12-21T07:51:48.082Z,92.45
2018-12-21T07:54:18.924Z,92.38
2018-12-21T07:56:49.619Z,92.80
2018-12-21T07:59:20.227Z,92.75
2018-12-21T08:01:50.894Z,92.94
2018-12-21T08:04:21.553Z,92.54
2018-12-21T08:06:52.255Z,92.61
2018-12-21T08:09:22.787Z,92.92
2018-12-21T08:11:53.426Z,92.88
2018-12-21T08:14:24.155Z,91.72
2018-12-21T08:16:54.867Z,92.36
2018-12-21T08:19:25.555Z,92.76
2018-12-21T08:21:56.020Z,92.37
2018-12-21T08:24:26.771Z,92.92
2018-12-21T08:26:57.511Z,92.64
2018-12-21T08:29:27.993Z,92.15
2018-12-21T08:31:58.587Z,92.26
2018-12-21T08:34:29.307Z,92.39
2018-12-21T08:37:00.126Z,92.57
2018-12-21T08:39:30.718Z,92.82
2018-12-21T08:42:01.252Z,92.42
2018-12-21T08:44:32.268Z,92.48
2018-12-21T08:47:02.961Z,91.73
2018-12-21T08:49:39.901Z,92.33
2018-12-21T08:52:10.708Z,92.40
2018-12-21T08:54:41.226Z,91.79
2018-12-21T08:57:11.858Z,92.45
2018-12-21T08:59:42.662Z,92.46
2018-12-21T09:02:13.093Z,92.64
2018-12-21T09:04:43.748Z,92.23
2018-12-21T09:07:14.268Z,92.40
2018-12-21T09:09:45.110Z,92.79
2018-12-21T09:12:15.701Z,92.10
2018-12-21T09:14:46.368Z,93.30
2018-12-21T09:17:17.091Z,92.28
2018-12-21T09:19:47.659Z,92.39
2018-12-21T09:22:18.247Z,92.35
2018-12-21T09:24:49.067Z,91.33
2018-12-21T09:27:19.828Z,91.22
2018-12-21T09:29:50.469Z,92.05
2018-12-21T09:32:21.096Z,90.88
2018-12-21T09:34:51.931Z,89.62
2018-12-21T09:37:22.792Z,89.41
2018-12-21T09:39:53.449Z,86.83
2018-12-21T09:42:24.583Z,87.12
2018-12-21T09:44:55.528Z,86.31
2018-12-21T09:47:26.308Z,85.08
2018-12-21T09:49:57.121Z,85.78
2018-12-21T09:52:27.872Z,86.90
2018-12-21T09:54:58.502Z,85.18
2018-12-21T09:57:29.148Z,86.20
2018-12-21T09:59:59.814Z,86.85
2018-12-21T10:02:35.753Z,87.66
2018-12-21T10:05:03.463Z,85.69
2018-12-21T10:07:33.989Z,86.96
2018-12-21T10:10:05.012Z,87.05
2018-12-21T10:12:35.717Z,88.54
2018-12-21T10:15:07.502Z,87.99
2018-12-21T10:17:37.886Z,88.52
2018-12-21T10:20:09.976Z,89.11
2018-12-21T10:22:40.675Z,88.50
2018-12-21T10:25:11.436Z,89.65
2018-12-21T10:27:42.138Z,89.80
2018-12-21T10:30:12.842Z,88.34
2018-12-21T10:32:43.165Z,88.26
2018-12-21T10:35:14.001Z,89.38
2018-12-21T10:37:44.891Z,87.72
2018-12-21T10:40:15.404Z,87.93
2018-12-21T10:42:45.979Z,88.64
2018-12-21T10:45:16.813Z,89.15
2018-12-21T10:47:47.552Z,88.72
2018-12-21T10:50:18.489Z,88.31
2018-12-21T10:52:49.063Z,89.09
2018-12-21T10:55:19.711Z,89.53
2018-12-21T10:57:50.346Z,89.92
2018-12-21T11:00:21.563Z,88.92
2018-12-21T11:02:52.125Z,88.94
2018-12-21T11:05:22.777Z,87.62
2018-12-21T11:07:53.609Z,87.80
2018-12-21T11:10:24.450Z,87.97
2018-12-21T11:12:55.268Z,87.38
2018-12-21T11:15:26.195Z,87.17
2018-12-21T11:17:57.049Z,86.69
2018-12-21T11:20:27.795Z,86.73
2018-12-21T11:22:58.839Z,87.33
2018-12-21T11:25:29.591Z,87.16
2018-12-21T11:28:00.210Z,86.67
2018-12-21T11:30:30.878Z,86.47
2018-12-21T11:33:01.559Z,87.47
2018-12-21T11:35:32.541Z,86.13
2018-12-21T11:38:03.596Z,87.09
2018-12-21T11:40:34.396Z,86.74
2018-12-21T11:43:05.082Z,87.18
2018-12-21T11:45:35.621Z,85.75
2018-12-21T11:48:06.380Z,85.12
2018-12-21T11:50:36.966Z,85.87
2018-12-21T11:53:07.813Z,86.03
2018-12-21T11:55:38.361Z,85.93
2018-12-21T11:58:09.173Z,85.45
2018-12-21T12:00:39.856Z,85.65
2018-12-21T12:03:10.746Z,87.04
2018-12-21T12:05:41.532Z,85.89
2018-12-21T12:08:12.081Z,87.01
2018-12-21T12:10:42.644Z,87.12
2018-12-21T12:13:13.200Z,86.60
2018-12-21T12:15:44.036Z,87.04
2018-12-21T12:18:14.614Z,86.45
2018-12-21T12:20:45.356Z,85.54
2018-12-21T12:23:16.276Z,86.69
2018-12-21T12:25:46.963Z,86.07
2018-12-21T12:28:17.523Z,86.67
2018-12-21T12:30:48.367Z,85.68
2018-12-21T12:33:19.147Z,85.68
2018-12-21T12:35:49.943Z,86.41
2018-12-21T12:38:20.665Z,86.73
2018-12-21T12:40:51.150Z,87.24
2018-12-21T12:43:21.904Z,87.57
2018-12-21T12:45:52.552Z,87.07
2018-12-21T12:48:23.235Z,87.03
2018-12-21T12:50:54.024Z,86.53
2018-12-21T12:53:24.576Z,86.50
2018-12-21T12:55:55.449Z,87.06
2018-12-21T12:58:25.971Z,86.52
2018-12-21T13:00:56.736Z,85.91
2018-12-21T13:03:27.111Z,86.74
2018-12-21T13:05:57.631Z,87.69
2018-12-21T13:08:28.284Z,87.43
2018-12-21T13:10:59.053Z,87.50
2018-12-21T13:13:29.993Z,86.98
2018-12-21T13:16:00.714Z,88.66
2018-12-21T13:18:31.314Z,88.52
2018-12-21T13:21:02.167Z,87.88
2018-12-21T13:23:32.798Z,88.30
2018-12-21T13:26:03.460Z,88.99
2018-12-21T13:28:34.217Z,88.09
2018-12-21T13:31:05.702Z,88.58
2018-12-21T13:33:36.238Z,88.70
2018-12-21T13:36:07.837Z,88.56
2018-12-21T13:38:38.465Z,89.63
2018-12-21T13:41:09.353Z,88.95
2018-12-21T13:43:39.883Z,89.38
2018-12-21T13:46:10.605Z,88.48
2018-12-21T13:48:41.313Z,89.91
2018-12-21T13:51:12.243Z,88.67
2018-12-21T13:53:42.957Z,90.19
2018-12-21T13:56:13.589Z,90.30
2018-12-21T13:58:44.333Z,89.34
2018-12-21T14:01:15.072Z,89.34
2018-12-21T14:03:45.755Z,89.28
2018-12-21T14:06:17.204Z,90.34
2018-12-21T14:08:47.804Z,89.82
2018-12-21T14:11:18.575Z,89.74
2018-12-21T14:13:49.166Z,89.56
2018-12-21T14:16:19.992Z,87.71
2018-12-21T14:18:50.777Z,88.35
2018-12-21T14:21:21.624Z,88.01
2018-12-21T14:23:52.376Z,87.63
2018-12-21T14:26:22.979Z,88.15
2018-12-21T14:28:53.701Z,88.82
2018-12-21T14:31:24.518Z,88.34
2018-12-21T14:33:54.872Z,87.57
2018-12-21T14:36:25.390Z,88.28
2018-12-21T14:38:55.920Z,87.29
2018-12-21T14:41:26.372Z,87.30
2018-12-21T14:43:56.696Z,87.68
2018-12-21T14:46:27.418Z,87.19
2018-12-21T14:48:58.140Z,86.60
2018-12-21T14:51:28.850Z,87.07
2018-12-21T14:53:59.515Z,87.07
2018-12-21T14:56:30.042Z,86.40
2018-12-21T14:59:00.682Z,86.59
2018-12-21T15:01:31.140Z,86.33
2018-12-21T15:04:01.756Z,86.37
2018-12-21T15:06:32.355Z,86.17
2018-12-21T15:09:03.204Z,85.39
2018-12-21T15:11:34.719Z,85.67
2018-12-21T15:14:05.369Z,85.85
2018-12-21T15:16:35.904Z,85.46
2018-12-21T15:19:06.746Z,85.16
2018-12-21T15:21:37.514Z,85.71
2018-12-21T15:24:07.980Z,85.92
2018-12-21T15:26:38.494Z,86.21
2018-12-21T15:29:09.272Z,86.88
2018-12-21T15:31:39.714Z,86.42
2018-12-21T15:34:10.417Z,85.82
2018-12-21T15:36:40.901Z,85.71
2018-12-21T15:39:11.567Z,87.11
2018-12-21T15:41:42.251Z,85.86
2018-12-21T15:44:12.879Z,86.30
2018-12-21T15:46:43.954Z,86.56
2018-12-21T15:49:14.748Z,87.19
2018-12-21T15:51:46.202Z,87.81
2018-12-21T15:54:16.705Z,87.69
2018-12-21T15:56:47.631Z,87.57
2018-12-21T15:59:18.422Z,88.46
2018-12-21T16:01:48.924Z,88.03
2018-12-21T16:04:19.420Z,87.40
2018-12-21T16:06:51.036Z,87.88
2018-12-21T16:09:22.278Z,87.30
2018-12-21T16:11:53.024Z,87.21
2018-12-21T16:14:23.591Z,87.20
2018-12-21T16:16:54.415Z,88.39
2018-12-21T16:19:24.900Z,88.74
2018-12-21T16:21:55.643Z,87.57
2018-12-21T16:24:26.453Z,88.19
2018-12-21T16:26:57.139Z,89.22
2018-12-21T16:29:27.898Z,88.18
2018-12-21T16:31:58.570Z,88.88
2018-12-21T16:34:29.074Z,88.02
2018-12-21T16:36:59.699Z,89.34
2018-12-21T16:39:30.312Z,88.84
2018-12-21T16:42:01.078Z,88.50
2018-12-21T16:44:31.668Z,87.83
2018-12-21T16:47:02.373Z,89.13
2018-12-21T16:49:33.158Z,89.98
2018-12-21T16:52:04.065Z,89.73
2018-12-21T16:54:34.428Z,89.68
2018-12-21T16:57:05.137Z,89.71
2018-12-21T16:59:35.663Z,90.84
2018-12-21T17:02:06.352Z,90.48
2018-12-21T17:04:37.154Z,89.71
2018-12-21T17:07:07.795Z,88.67
2018-12-21T17:09:38.291Z,88.68
2018-12-21T17:12:15.229Z,88.36
2018-12-21T17:14:45.943Z,87.64
2018-12-21T17:17:16.476Z,87.93
2018-12-21T17:19:47.060Z,86.30
2018-12-21T17:22:17.721Z,87.52
2018-12-21T17:24:48.487Z,88.70
2018-12-21T17:27:19.147Z,89.05
2018-12-21T17:29:49.917Z,88.34
2018-12-21T17:32:20.648Z,89.11
2018-12-21T17:34:51.097Z,89.33
2018-12-21T17:37:21.728Z,90.80
2018-12-21T17:39:52.016Z,89.75
2018-12-21T17:42:22.637Z,89.72
2018-12-21T17:44:53.511Z,90.46
2018-12-21T17:47:24.284Z,89.86
2018-12-21T17:49:54.946Z,90.53
2018-12-21T17:52:26.463Z,90.55
2018-12-21T17:54:57.148Z,90.11
2018-12-21T17:57:27.687Z,90.73
2018-12-21T17:59:58.304Z,90.60
2018-12-21T18:02:29.148Z,90.52
2018-12-21T18:04:59.996Z,90.06
2018-12-21T18:07:30.758Z,90.20
2018-12-21T18:10:01.661Z,90.59
2018-12-21T18:12:32.414Z,90.30
2018-12-21T18:15:03.155Z,90.31
2018-12-21T18:17:33.886Z,90.32
2018-12-21T18:20:04.570Z,90.63
2018-12-21T18:22:35.271Z,91.25
2018-12-21T18:25:13.319Z,91.87
2018-12-21T18:27:45.548Z,90.98
2018-12-21T18:30:22.641Z,91.72
2018-12-21T18:32:53.437Z,91.00
2018-12-21T18:35:24.456Z,91.30
2018-12-21T18:38:02.236Z,91.52
2018-12-21T18:40:33.433Z,91.32
2018-12-21T18:43:04.316Z,91.22
2018-12-21T18:45:34.944Z,90.70
2018-12-21T18:48:05.656Z,91.17
2018-12-21T18:50:36.696Z,90.59
2018-12-21T18:53:07.419Z,90.70
2018-12-21T18:55:38.108Z,91.38
2018-12-21T18:58:08.588Z,91.63
2018-12-21T19:00:39.202Z,93.16
2018-12-21T19:03:09.934Z,92.94
2018-12-21T19:05:40.507Z,92.66
2018-12-21T19:08:11.305Z,93.61
2018-12-21T19:10:41.923Z,93.28
2018-12-21T19:13:12.669Z,93.49
2018-12-21T19:15:43.007Z,94.11
2018-12-21T19:18:13.931Z,94.95
2018-12-21T19:20:44.444Z,94.19
2018-12-21T19:23:15.275Z,94.17
2018-12-21T19:25:46.027Z,94.35
2018-12-21T19:28:17.014Z,94.70
2018-12-21T19:30:47.804Z,95.03
2018-12-21T19:33:18.660Z,95.01
2018-12-21T19:35:49.471Z,94.88
2018-12-21T19:38:21.308Z,94.71
2018-12-21T19:40:52.097Z,94.92
2018-12-21T19:43:28.070Z,95.44
2018-12-21T19:45:55.486Z,95.04
2018-12-21T19:48:26.234Z,94.97
2018-12-21T19:50:57.128Z,95.05
2018-12-21T19:53:28.425Z,95.69
2018-12-21T19:56:16.317Z,95.21
2018-12-21T19:58:47.108Z,95.02
2018-12-21T20:01:17.980Z,95.54
2018-12-21T20:03:48.513Z,95.58
2018-12-21T20:06:19.134Z,95.52
2018-12-21T20:08:49.817Z,95.05
2018-12-21T20:11:20.598Z,95.38
2018-12-21T20:13:51.387Z,95.54
2018-12-21T20:16:21.958Z,95.76
2018-12-21T20:18:53.024Z,95.74
2018-12-21T20:21:24.679Z,95.49
2018-12-21T20:23:55.444Z,94.47
2018-12-21T20:26:26.330Z,95.44
2018-12-21T20:28:56.987Z,95.06
2018-12-21T20:31:27.601Z,95.34
2018-12-21T20:33:57.972Z,94.53
2018-12-21T20:36:28.666Z,94.42
2018-12-21T20:38:59.323Z,94.27
2018-12-21T20:41:30.051Z,94.43
2018-12-21T20:44:00.770Z,94.75
2018-12-21T20:46:31.479Z,94.25
2018-12-21T20:49:01.960Z,94.75
2018-12-21T20:51:32.663Z,94.90
2018-12-21T20:54:03.347Z,94.14
2018-12-21T20:56:33.899Z,93.61
2018-12-21T20:59:08.558Z,93.95
2018-12-21T21:01:40.181Z,93.58
2018-12-21T21:04:10.930Z,93.68
2018-12-21T21:06:41.764Z,94.00
2018-12-21T21:09:13.428Z,94.40
2018-12-21T21:11:44.461Z,94.87
2018-12-21T21:14:16.346Z,94.49
2018-12-21T21:16:46.854Z,93.94
2018-12-21T21:19:17.594Z,94.74
2018-12-21T21:21:48.546Z,95.11
2018-12-21T21:24:19.411Z,95.54
2018-12-21T21:26:50.294Z,95.05
2018-12-21T21:29:20.770Z,94.80
2018-12-21T21:31:51.363Z,94.52
2018-12-21T21:34:21.913Z,95.29
2018-12-21T21:36:52.511Z,94.55
2018-12-21T21:39:23.406Z,95.24
2018-12-21T21:41:54.284Z,95.89
2018-12-21T21:44:25.002Z,95.83
2018-12-21T21:46:55.534Z,95.64
2018-12-21T21:49:26.050Z,95.72
2018-12-21T21:51:56.793Z,95.61
2018-12-21T21:54:27.554Z,95.82
2018-12-21T21:56:58.170Z,96.15
2018-12-21T21:59:28.841Z,96.18
2018-12-21T22:01:59.191Z,95.60
2018-12-21T22:04:29.850Z,96.06
2018-12-21T22:07:00.642Z,95.95
2018-12-21T22:09:31.566Z,95.86
2018-12-21T22:12:04.002Z,96.02
2018-12-21T22:14:34.540Z,96.19
2018-12-21T22:17:05.235Z,96.30
2018-12-21T22:19:36.018Z,96.82
2018-12-21T22:22:06.566Z,96.42
2018-12-21T22:24:37.135Z,96.53
2018-12-21T22:27:07.785Z,97.03
2018-12-21T22:29:38.566Z,96.90
2018-12-21T22:32:09.118Z,96.74
2018-12-21T22:34:39.677Z,97.01
2018-12-21T22:37:10.200Z,96.93
2018-12-21T22:39:40.837Z,96.89
2018-12-21T22:42:11.602Z,97.44
2018-12-21T22:44:42.264Z,97.20
2018-12-21T22:47:12.964Z,96.96
2018-12-21T22:49:43.353Z,97.69
2018-12-21T22:52:14.112Z,97.19
2018-12-21T22:54:44.795Z,97.26
2018-12-21T22:57:15.474Z,96.86
2018-12-21T22:59:46.044Z,97.41
2018-12-21T23:02:16.532Z,97.04
2018-12-21T23:04:47.172Z,96.92
2018-12-21T23:07:17.824Z,97.19
2018-12-21T23:09:48.346Z,97.40
2018-12-21T23:12:18.804Z,97.54
2018-12-21T23:14:49.511Z,96.55
2018-12-21T23:17:19.931Z,96.53
2018-12-21T23:19:50.363Z,95.97
2018-12-21T23:22:21.117Z,96.35
2018-12-21T23:24:51.732Z,95.97
2018-12-21T23:27:22.485Z,95.32
2018-12-21T23:29:52.982Z,94.40
2018-12-21T23:32:23.692Z,94.78
2018-12-21T23:34:54.371Z,93.97
2018-12-21T23:37:24.840Z,94.22
2018-12-21T23:39:55.518Z,94.94
2018-12-21T23:42:25.874Z,94.98
2018-12-21T23:44:56.339Z,94.63
2018-12-21T23:47:26.782Z,95.03
2018-12-21T23:49:57.409Z,94.87
2018-12-21T23:52:28.112Z,93.30
2018-12-21T23:54:58.607Z,93.57
2018-12-21T23:57:29.206Z,93.36
2018-12-21T23:59:59.863Z,94.22
